VOI5263 MMTG-MMSM
Flight info
| Callsign | VOI5263 |
|---|---|
| Flight time | N/A |
| Altitude | 38000 |
| Route | TGZ1B TGZ UA552 URVOD DCT OMATO DCT LARLO LARLO3B |
| Aircraft | A320/M-SDE3FGHIRWY/LB1 |
Departure
| Time | 2026-05-04 01:08 |
|---|---|
| Airport | Angel Albino Corzo International Airport (MMTG) |
Arrival
| Time | N/A |
|---|---|
| Airport | Felipe Ángeles International Airport (MMSM) |
| Time | Latitude | Longitude | Altitude | Speed | Heading |
|---|---|---|---|---|---|
| 2026-05-04 00:20 | 16.56097 | -93.02108 | 1505 ft | 0 kts | 144° |
| 2026-05-04 00:55 | 16.56102 | -93.02111 | 1505 ft | 2 kts | 144° |
| 2026-05-04 00:56 | 16.56118 | -93.02123 | 1505 ft | 3 kts | 139° |
| 2026-05-04 00:56 | 16.56130 | -93.02137 | 1505 ft | 3 kts | 91° |
| 2026-05-04 00:56 | 16.56126 | -93.02150 | 1505 ft | 3 kts | 62° |
| 2026-05-04 00:56 | 16.56117 | -93.02168 | 1505 ft | 3 kts | 62° |
| 2026-05-04 00:57 | 16.56107 | -93.02187 | 1505 ft | 3 kts | 62° |
| 2026-05-04 00:57 | 16.56098 | -93.02206 | 1505 ft | 3 kts | 62° |
| 2026-05-04 00:57 | 16.56088 | -93.02224 | 1505 ft | 3 kts | 62° |
| 2026-05-04 00:57 | 16.56082 | -93.02236 | 1505 ft | 2 kts | 63° |
| 2026-05-04 00:58 | 16.56076 | -93.02254 | 1505 ft | 3 kts | 96° |
| 2026-05-04 00:58 | 16.56083 | -93.02271 | 1505 ft | 3 kts | 136° |
| 2026-05-04 00:58 | 16.56099 | -93.02284 | 1505 ft | 3 kts | 148° |
| 2026-05-04 00:58 | 16.56109 | -93.02291 | 1505 ft | 0 kts | 147° |
| 2026-05-04 01:01 | 16.56108 | -93.02290 | 1505 ft | 1 kts | 147° |
| 2026-05-04 01:01 | 16.56090 | -93.02277 | 1505 ft | 2 kts | 145° |
| 2026-05-04 01:01 | 16.56071 | -93.02264 | 1505 ft | 4 kts | 144° |
| 2026-05-04 01:01 | 16.56049 | -93.02231 | 1505 ft | 8 kts | 124° |
| 2026-05-04 01:02 | 16.56021 | -93.02196 | 1505 ft | 1 kts | 135° |
| 2026-05-04 01:02 | 16.56009 | -93.02184 | 1505 ft | 4 kts | 141° |
| 2026-05-04 01:02 | 16.55957 | -93.02147 | 1505 ft | 9 kts | 147° |
| 2026-05-04 01:02 | 16.55904 | -93.02116 | 1505 ft | 8 kts | 174° |
| 2026-05-04 01:03 | 16.55870 | -93.02138 | 1505 ft | 9 kts | 227° |
| 2026-05-04 01:03 | 16.55832 | -93.02177 | 1505 ft | 4 kts | 209° |
| 2026-05-04 01:03 | 16.55764 | -93.02150 | 1505 ft | 20 kts | 147° |
| 2026-05-04 01:03 | 16.55639 | -93.02067 | 1505 ft | 22 kts | 147° |
| 2026-05-04 01:04 | 16.55541 | -93.01999 | 1505 ft | 17 kts | 146° |
| 2026-05-04 01:04 | 16.55451 | -93.01935 | 1505 ft | 12 kts | 145° |
| 2026-05-04 01:04 | 16.55374 | -93.01881 | 1505 ft | 14 kts | 153° |
| 2026-05-04 01:04 | 16.55333 | -93.01878 | 1505 ft | 2 kts | 187° |
| 2026-05-04 01:05 | 16.55313 | -93.01882 | 1505 ft | 11 kts | 199° |
| 2026-05-04 01:05 | 16.55266 | -93.01939 | 1506 ft | 0 kts | 240° |
| 2026-05-04 01:06 | 16.55266 | -93.01940 | 1506 ft | 0 kts | 240° |
| 2026-05-04 01:06 | 16.55242 | -93.01995 | 1505 ft | 13 kts | 281° |
| 2026-05-04 01:06 | 16.55274 | -93.02025 | 1505 ft | 0 kts | 328° |
| 2026-05-04 01:07 | 16.55275 | -93.02026 | 1505 ft | 0 kts | 328° |
| 2026-05-04 01:07 | 16.55450 | -93.02144 | 1505 ft | 71 kts | 327° |
| 2026-05-04 01:07 | 16.56077 | -93.02597 | 1506 ft | 145 kts | 324° |
| 2026-05-04 01:07 | 16.57042 | -93.03317 | 1756 ft | 180 kts | 326° |
| 2026-05-04 01:08 | 16.58101 | -93.04003 | 2566 ft | 179 kts | 330° |
| 2026-05-04 01:08 | 16.59209 | -93.04640 | 3270 ft | 186 kts | 331° |
| 2026-05-04 01:08 | 16.60399 | -93.05292 | 3920 ft | 203 kts | 334° |
| 2026-05-04 01:08 | 16.61712 | -93.05941 | 4430 ft | 213 kts | 334° |
| 2026-05-04 01:09 | 16.63063 | -93.06691 | 4794 ft | 227 kts | 330° |
| 2026-05-04 01:09 | 16.64474 | -93.07561 | 5097 ft | 246 kts | 329° |
| 2026-05-04 01:09 | 16.65970 | -93.08478 | 5534 ft | 260 kts | 330° |
| 2026-05-04 01:09 | 16.67592 | -93.09434 | 6039 ft | 274 kts | 330° |
| 2026-05-04 01:10 | 16.69277 | -93.10418 | 6709 ft | 280 kts | 330° |
| 2026-05-04 01:10 | 16.70980 | -93.11426 | 7471 ft | 282 kts | 330° |
| 2026-05-04 01:10 | 16.72675 | -93.12477 | 8229 ft | 284 kts | 324° |
| 2026-05-04 01:10 | 16.74086 | -93.13925 | 8976 ft | 285 kts | 308° |
| 2026-05-04 01:11 | 16.75242 | -93.15611 | 9716 ft | 287 kts | 304° |
| 2026-05-04 01:11 | 16.76351 | -93.17353 | 10396 ft | 291 kts | 304° |
| 2026-05-04 01:11 | 16.77506 | -93.19139 | 10798 ft | 304 kts | 304° |
| 2026-05-04 01:11 | 16.78753 | -93.21000 | 11008 ft | 322 kts | 305° |
| 2026-05-04 01:12 | 16.80096 | -93.22958 | 11207 ft | 339 kts | 306° |
| 2026-05-04 01:12 | 16.81506 | -93.24997 | 11440 ft | 354 kts | 306° |
| 2026-05-04 01:12 | 16.82977 | -93.27128 | 11648 ft | 368 kts | 305° |
| 2026-05-04 01:12 | 16.84497 | -93.29342 | 11821 ft | 381 kts | 305° |
| 2026-05-04 01:13 | 16.86042 | -93.31598 | 12058 ft | 391 kts | 305° |
| 2026-05-04 01:13 | 16.87745 | -93.33815 | 12508 ft | 394 kts | 311° |
| 2026-05-04 01:13 | 16.89682 | -93.35868 | 12973 ft | 397 kts | 314° |
| 2026-05-04 01:13 | 16.91693 | -93.37868 | 13412 ft | 400 kts | 315° |
| 2026-05-04 01:14 | 16.93740 | -93.39860 | 13838 ft | 403 kts | 315° |
| 2026-05-04 01:14 | 16.95788 | -93.41865 | 14255 ft | 405 kts | 314° |
| 2026-05-04 01:14 | 16.97835 | -93.43905 | 14669 ft | 408 kts | 314° |
| 2026-05-04 01:14 | 16.99881 | -93.45974 | 15074 ft | 410 kts | 314° |
| 2026-05-04 01:15 | 17.01933 | -93.48062 | 15468 ft | 412 kts | 314° |
| 2026-05-04 01:15 | 17.03970 | -93.50131 | 15849 ft | 415 kts | 314° |
| 2026-05-04 01:15 | 17.06054 | -93.52237 | 16231 ft | 417 kts | 314° |
| 2026-05-04 01:15 | 17.08148 | -93.54342 | 16605 ft | 419 kts | 314° |
| 2026-05-04 01:16 | 17.10258 | -93.56464 | 16970 ft | 421 kts | 314° |
| 2026-05-04 01:16 | 17.12376 | -93.58599 | 17324 ft | 424 kts | 314° |
| 2026-05-04 01:16 | 17.14502 | -93.60745 | 17674 ft | 426 kts | 314° |
| 2026-05-04 01:16 | 17.16636 | -93.62901 | 18014 ft | 428 kts | 314° |
| 2026-05-04 01:17 | 17.18782 | -93.65070 | 18347 ft | 430 kts | 314° |
| 2026-05-04 01:17 | 17.20937 | -93.67251 | 18677 ft | 432 kts | 314° |
| 2026-05-04 01:17 | 17.23101 | -93.69437 | 18998 ft | 434 kts | 314° |
| 2026-05-04 01:17 | 17.25285 | -93.71646 | 19312 ft | 436 kts | 314° |
| 2026-05-04 01:18 | 17.27472 | -93.73857 | 19627 ft | 438 kts | 314° |
| 2026-05-04 01:18 | 17.29637 | -93.76049 | 19926 ft | 440 kts | 314° |
| 2026-05-04 01:18 | 17.31841 | -93.78282 | 20226 ft | 442 kts | 314° |
| 2026-05-04 01:18 | 17.34062 | -93.80532 | 20519 ft | 444 kts | 314° |
| 2026-05-04 01:19 | 17.36284 | -93.82783 | 20801 ft | 446 kts | 314° |
| 2026-05-04 01:19 | 17.38520 | -93.85049 | 21081 ft | 448 kts | 314° |
| 2026-05-04 01:19 | 17.40757 | -93.87317 | 21344 ft | 449 kts | 314° |
| 2026-05-04 01:19 | 17.43004 | -93.89598 | 21610 ft | 451 kts | 314° |
| 2026-05-04 01:20 | 17.45267 | -93.91895 | 21863 ft | 453 kts | 314° |
| 2026-05-04 01:20 | 17.47537 | -93.94197 | 22117 ft | 455 kts | 314° |
| 2026-05-04 01:20 | 17.49812 | -93.96506 | 22363 ft | 456 kts | 314° |
| 2026-05-04 01:20 | 17.52097 | -93.98829 | 22609 ft | 458 kts | 314° |
| 2026-05-04 01:21 | 17.54387 | -94.01157 | 22853 ft | 460 kts | 314° |
| 2026-05-04 01:21 | 17.56682 | -94.03491 | 23091 ft | 461 kts | 314° |
| 2026-05-04 01:21 | 17.58987 | -94.05835 | 23323 ft | 463 kts | 314° |
| 2026-05-04 01:21 | 17.61277 | -94.08164 | 23547 ft | 464 kts | 314° |
| 2026-05-04 01:22 | 17.63594 | -94.10522 | 23765 ft | 466 kts | 314° |
| 2026-05-04 01:22 | 17.65928 | -94.12896 | 23979 ft | 467 kts | 314° |
| 2026-05-04 01:22 | 17.68263 | -94.15273 | 24186 ft | 469 kts | 314° |
| 2026-05-04 01:22 | 17.70606 | -94.17660 | 24389 ft | 470 kts | 314° |
| 2026-05-04 01:23 | 17.72952 | -94.20053 | 24584 ft | 471 kts | 314° |
| 2026-05-04 01:23 | 17.75312 | -94.22464 | 24768 ft | 473 kts | 314° |
| 2026-05-04 01:23 | 17.77669 | -94.24867 | 24944 ft | 474 kts | 314° |
| 2026-05-04 01:23 | 17.80046 | -94.27289 | 25115 ft | 475 kts | 314° |
| 2026-05-04 01:24 | 17.82422 | -94.29712 | 25280 ft | 476 kts | 314° |
| 2026-05-04 01:24 | 17.84801 | -94.32145 | 25441 ft | 478 kts | 314° |
| 2026-05-04 01:24 | 17.87181 | -94.34582 | 25597 ft | 479 kts | 314° |
| 2026-05-04 01:24 | 17.89566 | -94.37021 | 25807 ft | 478 kts | 314° |
| 2026-05-04 01:25 | 17.91947 | -94.39454 | 26026 ft | 478 kts | 314° |
| 2026-05-04 01:25 | 17.94326 | -94.41882 | 26234 ft | 477 kts | 314° |
| 2026-05-04 01:25 | 17.96709 | -94.44318 | 26437 ft | 477 kts | 314° |
| 2026-05-04 01:25 | 17.99083 | -94.46749 | 26648 ft | 476 kts | 313° |
| 2026-05-04 01:26 | 18.01428 | -94.49152 | 26850 ft | 476 kts | 313° |
| 2026-05-04 01:26 | 18.03796 | -94.51579 | 27067 ft | 476 kts | 313° |
| 2026-05-04 01:26 | 18.06163 | -94.54006 | 27273 ft | 475 kts | 313° |
| 2026-05-04 01:26 | 18.08355 | -94.56591 | 27483 ft | 472 kts | 305° |
| 2026-05-04 01:27 | 18.10060 | -94.59527 | 27685 ft | 470 kts | 294° |
| 2026-05-04 01:27 | 18.11146 | -94.62756 | 27898 ft | 467 kts | 282° |
| 2026-05-04 01:27 | 18.11741 | -94.66100 | 28030 ft | 463 kts | 278° |
| 2026-05-04 01:28 | 18.12716 | -94.72775 | 28016 ft | 462 kts | 278° |
| 2026-05-04 01:28 | 18.13827 | -94.79416 | 28009 ft | 462 kts | 280° |
| 2026-05-04 01:29 | 18.15005 | -94.86066 | 28006 ft | 462 kts | 279° |
| 2026-05-04 01:29 | 18.15927 | -94.91610 | 28005 ft | 462 kts | 279° |
| 2026-05-04 01:30 | 18.17027 | -94.98266 | 28016 ft | 462 kts | 279° |
| 2026-05-04 01:30 | 18.18148 | -95.04911 | 28021 ft | 462 kts | 279° |
| 2026-05-04 01:31 | 18.19266 | -95.11582 | 28027 ft | 462 kts | 279° |
| 2026-05-04 01:31 | 18.20372 | -95.18238 | 28023 ft | 461 kts | 279° |
| 2026-05-04 01:32 | 18.21486 | -95.24913 | 28015 ft | 471 kts | 279° |
| 2026-05-04 01:32 | 18.22604 | -95.31635 | 27999 ft | 456 kts | 279° |
| 2026-05-04 01:32 | 18.23119 | -95.34744 | 27996 ft | 442 kts | 279° |
| 2026-05-04 01:33 | 18.23655 | -95.37991 | 27995 ft | 427 kts | 279° |
| 2026-05-04 01:33 | 18.24156 | -95.41037 | 27996 ft | 417 kts | 279° |
| 2026-05-04 01:33 | 18.24649 | -95.44015 | 27998 ft | 410 kts | 279° |
| 2026-05-04 01:33 | 18.25136 | -95.46952 | 27981 ft | 405 kts | 279° |
| 2026-05-04 01:34 | 18.25620 | -95.49868 | 27982 ft | 406 kts | 279° |
| 2026-05-04 01:34 | 18.26105 | -95.52802 | 27988 ft | 405 kts | 279° |
| 2026-05-04 01:34 | 18.26585 | -95.55717 | 27995 ft | 405 kts | 279° |
| 2026-05-04 01:34 | 18.27059 | -95.58600 | 27999 ft | 405 kts | 279° |
| 2026-05-04 01:35 | 18.27537 | -95.61520 | 28001 ft | 405 kts | 279° |
| 2026-05-04 01:35 | 18.28497 | -95.67352 | 28003 ft | 404 kts | 279° |
| 2026-05-04 01:36 | 18.29456 | -95.73200 | 28004 ft | 404 kts | 279° |
| 2026-05-04 01:36 | 18.30409 | -95.79030 | 28002 ft | 404 kts | 279° |
| 2026-05-04 01:36 | 18.30885 | -95.81946 | 27999 ft | 404 kts | 279° |
| 2026-05-04 01:37 | 18.31363 | -95.84876 | 28001 ft | 404 kts | 279° |
| 2026-05-04 01:37 | 18.32309 | -95.90664 | 28008 ft | 404 kts | 279° |
| 2026-05-04 01:38 | 18.33256 | -95.96493 | 27998 ft | 404 kts | 279° |
| 2026-05-04 01:38 | 18.33727 | -95.99410 | 27994 ft | 404 kts | 279° |
| 2026-05-04 01:38 | 18.34196 | -96.02302 | 27990 ft | 395 kts | 279° |
| 2026-05-04 01:38 | 18.34655 | -96.05123 | 27993 ft | 386 kts | 279° |
| 2026-05-04 01:39 | 18.35106 | -96.07902 | 28000 ft | 386 kts | 279° |
| 2026-05-04 01:39 | 18.35557 | -96.10692 | 27999 ft | 383 kts | 279° |
| 2026-05-04 01:39 | 18.36003 | -96.13447 | 27999 ft | 380 kts | 279° |
| 2026-05-04 01:40 | 18.36884 | -96.18921 | 28003 ft | 380 kts | 279° |
| 2026-05-04 01:40 | 18.37761 | -96.24376 | 28004 ft | 380 kts | 279° |
| 2026-05-04 01:41 | 18.38642 | -96.29853 | 28006 ft | 380 kts | 279° |
| 2026-05-04 01:41 | 18.39524 | -96.35342 | 28002 ft | 380 kts | 279° |